sensor_id;sensor_type;location;lat;lon;timestamp;P1;durP1;ratioP1;P2;durP2;ratioP2
20535;SDS011;10426;49.420;8.390;2022-12-01T00:02:23;14.13;;;12.63;;
20535;SDS011;10426;49.420;8.390;2022-12-01T00:04:50;14.80;;;13.30;;
20535;SDS011;10426;49.420;8.390;2022-12-01T00:07:16;15.65;;;13.13;;
20535;SDS011;10426;49.420;8.390;2022-12-01T00:09:45;14.80;;;13.23;;
20535;SDS011;10426;49.420;8.390;2022-12-01T00:12:29;15.43;;;13.52;;
20535;SDS011;10426;49.420;8.390;2022-12-01T00:14:56;15.07;;;13.48;;
20535;SDS011;10426;49.420;8.390;2022-12-01T00:17:27;16.30;;;13.90;;
20535;SDS011;10426;49.420;8.390;2022-12-01T00:19:54;16.00;;;13.50;;
20535;SDS011;10426;49.420;8.390;2022-12-01T00:22:21;15.32;;;13.55;;
20535;SDS011;10426;49.420;8.390;2022-12-01T00:24:49;17.65;;;14.05;;
20535;SDS011;10426;49.420;8.390;2022-12-01T00:27:16;15.43;;;13.82;;
20535;SDS011;10426;49.420;8.390;2022-12-01T00:29:44;15.23;;;13.73;;
20535;SDS011;10426;49.420;8.390;2022-12-01T00:32:10;15.07;;;13.48;;
20535;SDS011;10426;49.420;8.390;2022-12-01T00:34:37;15.20;;;13.60;;
20535;SDS011;10426;49.420;8.390;2022-12-01T00:37:04;15.27;;;13.67;;
20535;SDS011;10426;49.420;8.390;2022-12-01T00:39:30;15.47;;;13.73;;
20535;SDS011;10426;49.420;8.390;2022-12-01T00:41:59;14.90;;;13.35;;
20535;SDS011;10426;49.420;8.390;2022-12-01T00:44:25;16.00;;;14.32;;
20535;SDS011;10426;49.420;8.390;2022-12-01T00:46:52;15.93;;;14.20;;
20535;SDS011;10426;49.420;8.390;2022-12-01T00:49:19;17.23;;;14.07;;
20535;SDS011;10426;49.420;8.390;2022-12-01T00:51:45;15.90;;;14.20;;
20535;SDS011;10426;49.420;8.390;2022-12-01T00:54:12;16.52;;;14.73;;
20535;SDS011;10426;49.420;8.390;2022-12-01T00:56:39;17.08;;;14.80;;
20535;SDS011;10426;49.420;8.390;2022-12-01T00:59:07;16.95;;;15.15;;
20535;SDS011;10426;49.420;8.390;2022-12-01T01:01:33;18.83;;;15.77;;
20535;SDS011;10426;49.420;8.390;2022-12-01T01:04:00;17.20;;;15.40;;
20535;SDS011;10426;49.420;8.390;2022-12-01T01:06:27;17.85;;;15.05;;
20535;SDS011;10426;49.420;8.390;2022-12-01T01:08:54;17.35;;;15.48;;
20535;SDS011;10426;49.420;8.390;2022-12-01T01:11:20;16.33;;;14.63;;
20535;SDS011;10426;49.420;8.390;2022-12-01T01:13:47;17.42;;;15.30;;
20535;SDS011;10426;49.420;8.390;2022-12-01T01:16:16;16.90;;;15.10;;
20535;SDS011;10426;49.420;8.390;2022-12-01T01:18:44;17.05;;;15.25;;
20535;SDS011;10426;49.420;8.390;2022-12-01T01:21:11;16.65;;;14.93;;
20535;SDS011;10426;49.420;8.390;2022-12-01T01:23:38;16.88;;;15.27;;
20535;SDS011;10426;49.420;8.390;2022-12-01T01:26:06;18.10;;;15.53;;
20535;SDS011;10426;49.420;8.390;2022-12-01T01:28:33;16.55;;;14.85;;
20535;SDS011;10426;49.420;8.390;2022-12-01T01:31:03;16.77;;;15.10;;
20535;SDS011;10426;49.420;8.390;2022-12-01T01:33:32;17.42;;;15.35;;
20535;SDS011;10426;49.420;8.390;2022-12-01T01:35:59;17.05;;;15.35;;
20535;SDS011;10426;49.420;8.390;2022-12-01T01:38:25;16.95;;;15.20;;
20535;SDS011;10426;49.420;8.390;2022-12-01T01:40:52;17.65;;;15.75;;
20535;SDS011;10426;49.420;8.390;2022-12-01T01:46:01;18.52;;;16.42;;
20535;SDS011;10426;49.420;8.390;2022-12-01T01:48:28;17.90;;;16.00;;
20535;SDS011;10426;49.420;8.390;2022-12-01T01:50:56;18.33;;;16.42;;
20535;SDS011;10426;49.420;8.390;2022-12-01T01:53:23;17.90;;;16.00;;
20535;SDS011;10426;49.420;8.390;2022-12-01T01:55:49;18.15;;;16.30;;
20535;SDS011;10426;49.420;8.390;2022-12-01T01:58:16;19.17;;;16.40;;
20535;SDS011;10426;49.420;8.390;2022-12-01T02:00:43;18.65;;;16.27;;
20535;SDS011;10426;49.420;8.390;2022-12-01T02:03:11;18.75;;;16.83;;
20535;SDS011;10426;49.420;8.390;2022-12-01T02:05:38;18.08;;;16.17;;
20535;SDS011;10426;49.420;8.390;2022-12-01T02:08:06;19.42;;;17.42;;
20535;SDS011;10426;49.420;8.390;2022-12-01T02:10:38;18.23;;;16.33;;
20535;SDS011;10426;49.420;8.390;2022-12-01T02:13:12;18.65;;;16.33;;
20535;SDS011;10426;49.420;8.390;2022-12-01T02:15:43;19.35;;;16.95;;
20535;SDS011;10426;49.420;8.390;2022-12-01T02:18:17;18.90;;;16.92;;
20535;SDS011;10426;49.420;8.390;2022-12-01T02:21:06;19.40;;;16.40;;
20535;SDS011;10426;49.420;8.390;2022-12-01T02:23:46;20.27;;;18.15;;
20535;SDS011;10426;49.420;8.390;2022-12-01T02:26:26;19.13;;;17.13;;
20535;SDS011;10426;49.420;8.390;2022-12-01T02:31:46;20.73;;;18.23;;
20535;SDS011;10426;49.420;8.390;2022-12-01T02:34:18;22.85;;;17.77;;
20535;SDS011;10426;49.420;8.390;2022-12-01T02:36:49;21.02;;;18.75;;
20535;SDS011;10426;49.420;8.390;2022-12-01T02:39:19;19.73;;;17.63;;
20535;SDS011;10426;49.420;8.390;2022-12-01T02:41:47;19.50;;;17.50;;
20535;SDS011;10426;49.420;8.390;2022-12-01T02:44:17;19.35;;;17.35;;
20535;SDS011;10426;49.420;8.390;2022-12-01T02:46:48;19.70;;;17.70;;
20535;SDS011;10426;49.420;8.390;2022-12-01T02:49:17;20.83;;;17.95;;
20535;SDS011;10426;49.420;8.390;2022-12-01T02:51:44;19.83;;;17.33;;
20535;SDS011;10426;49.420;8.390;2022-12-01T02:54:11;22.80;;;18.23;;
20535;SDS011;10426;49.420;8.390;2022-12-01T02:56:38;20.35;;;18.25;;
20535;SDS011;10426;49.420;8.390;2022-12-01T02:59:07;19.23;;;17.23;;
20535;SDS011;10426;49.420;8.390;2022-12-01T03:01:38;19.70;;;17.60;;
20535;SDS011;10426;49.420;8.390;2022-12-01T03:04:17;21.35;;;17.92;;
20535;SDS011;10426;49.420;8.390;2022-12-01T03:06:49;20.15;;;18.05;;
20535;SDS011;10426;49.420;8.390;2022-12-01T03:09:21;20.17;;;17.52;;
20535;SDS011;10426;49.420;8.390;2022-12-01T03:11:54;21.25;;;17.92;;
20535;SDS011;10426;49.420;8.390;2022-12-01T03:14:24;20.23;;;18.10;;
20535;SDS011;10426;49.420;8.390;2022-12-01T03:16:52;19.10;;;17.15;;
20535;SDS011;10426;49.420;8.390;2022-12-01T03:19:23;21.77;;;18.53;;
20535;SDS011;10426;49.420;8.390;2022-12-01T03:21:53;19.83;;;17.83;;
20535;SDS011;10426;49.420;8.390;2022-12-01T03:24:21;19.60;;;17.30;;
20535;SDS011;10426;49.420;8.390;2022-12-01T03:26:50;20.02;;;17.80;;
20535;SDS011;10426;49.420;8.390;2022-12-01T03:29:22;20.73;;;18.15;;
20535;SDS011;10426;49.420;8.390;2022-12-01T03:31:50;19.85;;;17.75;;
20535;SDS011;10426;49.420;8.390;2022-12-01T03:34:20;20.92;;;18.05;;
20535;SDS011;10426;49.420;8.390;2022-12-01T03:36:51;20.30;;;18.20;;
20535;SDS011;10426;49.420;8.390;2022-12-01T03:39:19;22.27;;;18.13;;
20535;SDS011;10426;49.420;8.390;2022-12-01T03:41:49;22.05;;;17.92;;
20535;SDS011;10426;49.420;8.390;2022-12-01T03:44:19;20.38;;;17.83;;
20535;SDS011;10426;49.420;8.390;2022-12-01T03:46:47;20.67;;;18.02;;
20535;SDS011;10426;49.420;8.390;2022-12-01T03:49:17;20.27;;;18.13;;
20535;SDS011;10426;49.420;8.390;2022-12-01T03:51:46;20.80;;;18.33;;
20535;SDS011;10426;49.420;8.390;2022-12-01T03:54:17;20.55;;;17.98;;
20535;SDS011;10426;49.420;8.390;2022-12-01T03:56:46;21.67;;;18.33;;
20535;SDS011;10426;49.420;8.390;2022-12-01T03:59:14;19.98;;;17.77;;
20535;SDS011;10426;49.420;8.390;2022-12-01T04:01:41;23.02;;;18.92;;
20535;SDS011;10426;49.420;8.390;2022-12-01T04:04:09;19.85;;;17.75;;
20535;SDS011;10426;49.420;8.390;2022-12-01T04:06:36;21.67;;;18.98;;
20535;SDS011;10426;49.420;8.390;2022-12-01T04:09:04;21.05;;;18.85;;
20535;SDS011;10426;49.420;8.390;2022-12-01T04:11:32;22.65;;;18.70;;
20535;SDS011;10426;49.420;8.390;2022-12-01T04:14:16;20.83;;;18.73;;
20535;SDS011;10426;49.420;8.390;2022-12-01T04:16:43;18.13;;;16.23;;
20535;SDS011;10426;49.420;8.390;2022-12-01T04:19:09;21.73;;;18.92;;
20535;SDS011;10426;49.420;8.390;2022-12-01T04:21:36;20.33;;;17.92;;
20535;SDS011;10426;49.420;8.390;2022-12-01T04:24:03;20.23;;;18.02;;
20535;SDS011;10426;49.420;8.390;2022-12-01T04:26:30;17.65;;;15.85;;
20535;SDS011;10426;49.420;8.390;2022-12-01T04:28:59;15.30;;;13.70;;
20535;SDS011;10426;49.420;8.390;2022-12-01T04:31:25;14.10;;;12.65;;
20535;SDS011;10426;49.420;8.390;2022-12-01T04:33:53;13.32;;;11.93;;
20535;SDS011;10426;49.420;8.390;2022-12-01T04:36:19;13.23;;;11.93;;
20535;SDS011;10426;49.420;8.390;2022-12-01T04:38:46;13.23;;;12.02;;
20535;SDS011;10426;49.420;8.390;2022-12-01T04:41:13;13.27;;;11.98;;
20535;SDS011;10426;49.420;8.390;2022-12-01T04:43:40;12.73;;;11.43;;
20535;SDS011;10426;49.420;8.390;2022-12-01T04:46:08;12.45;;;11.27;;
20535;SDS011;10426;49.420;8.390;2022-12-01T04:48:35;13.07;;;11.88;;
20535;SDS011;10426;49.420;8.390;2022-12-01T04:51:02;12.98;;;11.77;;
20535;SDS011;10426;49.420;8.390;2022-12-01T04:53:29;13.10;;;11.80;;
20535;SDS011;10426;49.420;8.390;2022-12-01T04:55:57;13.10;;;11.80;;
20535;SDS011;10426;49.420;8.390;2022-12-01T04:58:24;13.18;;;11.63;;
20535;SDS011;10426;49.420;8.390;2022-12-01T05:00:51;12.30;;;11.10;;
20535;SDS011;10426;49.420;8.390;2022-12-01T05:03:19;12.90;;;11.70;;
20535;SDS011;10426;49.420;8.390;2022-12-01T05:05:46;13.18;;;11.77;;
20535;SDS011;10426;49.420;8.390;2022-12-01T05:08:12;12.65;;;11.45;;
20535;SDS011;10426;49.420;8.390;2022-12-01T05:10:39;13.43;;;11.40;;
20535;SDS011;10426;49.420;8.390;2022-12-01T05:13:06;13.52;;;12.13;;
20535;SDS011;10426;49.420;8.390;2022-12-01T05:15:32;13.10;;;11.90;;
20535;SDS011;10426;49.420;8.390;2022-12-01T05:17:59;12.18;;;10.98;;
20535;SDS011;10426;49.420;8.390;2022-12-01T05:20:27;12.73;;;11.52;;
20535;SDS011;10426;49.420;8.390;2022-12-01T05:23:11;12.65;;;11.45;;
20535;SDS011;10426;49.420;8.390;2022-12-01T05:25:38;12.40;;;11.30;;
20535;SDS011;10426;49.420;8.390;2022-12-01T05:28:04;11.93;;;10.83;;
20535;SDS011;10426;49.420;8.390;2022-12-01T05:30:32;12.77;;;11.48;;
20535;SDS011;10426;49.420;8.390;2022-12-01T05:32:59;12.13;;;11.02;;
20535;SDS011;10426;49.420;8.390;2022-12-01T05:35:27;11.50;;;10.40;;
20535;SDS011;10426;49.420;8.390;2022-12-01T05:37:54;11.95;;;10.85;;
20535;SDS011;10426;49.420;8.390;2022-12-01T05:40:21;11.75;;;10.60;;
20535;SDS011;10426;49.420;8.390;2022-12-01T05:42:48;12.23;;;11.05;;
20535;SDS011;10426;49.420;8.390;2022-12-01T05:45:15;12.50;;;11.20;;
20535;SDS011;10426;49.420;8.390;2022-12-01T05:47:42;12.30;;;11.13;;
20535;SDS011;10426;49.420;8.390;2022-12-01T05:50:09;12.90;;;11.60;;
20535;SDS011;10426;49.420;8.390;2022-12-01T05:52:37;12.30;;;11.10;;
20535;SDS011;10426;49.420;8.390;2022-12-01T05:55:04;13.10;;;11.80;;
20535;SDS011;10426;49.420;8.390;2022-12-01T05:57:31;12.10;;;10.88;;
20535;SDS011;10426;49.420;8.390;2022-12-01T05:59:59;12.02;;;10.82;;
20535;SDS011;10426;49.420;8.390;2022-12-01T06:02:26;12.30;;;11.10;;
20535;SDS011;10426;49.420;8.390;2022-12-01T06:04:52;13.18;;;11.88;;
20535;SDS011;10426;49.420;8.390;2022-12-01T06:07:19;13.43;;;12.02;;
20535;SDS011;10426;49.420;8.390;2022-12-01T06:09:49;12.27;;;11.18;;
20535;SDS011;10426;49.420;8.390;2022-12-01T06:12:15;11.85;;;10.65;;
20535;SDS011;10426;49.420;8.390;2022-12-01T06:14:42;12.95;;;11.65;;
20535;SDS011;10426;49.420;8.390;2022-12-01T06:17:09;14.07;;;12.57;;
20535;SDS011;10426;49.420;8.390;2022-12-01T06:19:36;13.27;;;11.90;;
20535;SDS011;10426;49.420;8.390;2022-12-01T06:22:03;13.48;;;12.07;;
20535;SDS011;10426;49.420;8.390;2022-12-01T06:24:32;13.40;;;12.10;;
20535;SDS011;10426;49.420;8.390;2022-12-01T06:27:00;13.35;;;12.07;;
20535;SDS011;10426;49.420;8.390;2022-12-01T06:29:26;12.88;;;11.57;;
20535;SDS011;10426;49.420;8.390;2022-12-01T06:31:53;12.63;;;11.43;;
20535;SDS011;10426;49.420;8.390;2022-12-01T06:34:20;13.68;;;11.27;;
20535;SDS011;10426;49.420;8.390;2022-12-01T06:36:47;12.73;;;11.52;;
20535;SDS011;10426;49.420;8.390;2022-12-01T06:39:13;12.88;;;11.63;;
20535;SDS011;10426;49.420;8.390;2022-12-01T06:41:40;12.90;;;11.70;;
20535;SDS011;10426;49.420;8.390;2022-12-01T06:44:09;13.65;;;12.23;;
20535;SDS011;10426;49.420;8.390;2022-12-01T06:46:37;13.85;;;11.98;;
20535;SDS011;10426;49.420;8.390;2022-12-01T06:49:04;13.65;;;12.10;;
20535;SDS011;10426;49.420;8.390;2022-12-01T06:51:30;13.43;;;12.13;;
20535;SDS011;10426;49.420;8.390;2022-12-01T06:53:58;14.60;;;12.90;;
20535;SDS011;10426;49.420;8.390;2022-12-01T06:56:25;13.73;;;12.40;;
20535;SDS011;10426;49.420;8.390;2022-12-01T06:58:52;14.23;;;12.73;;
20535;SDS011;10426;49.420;8.390;2022-12-01T07:01:20;13.65;;;12.23;;
20535;SDS011;10426;49.420;8.390;2022-12-01T07:03:47;14.02;;;12.63;;
20535;SDS011;10426;49.420;8.390;2022-12-01T07:06:15;14.30;;;12.80;;
20535;SDS011;10426;49.420;8.390;2022-12-01T07:08:42;14.30;;;12.85;;
20535;SDS011;10426;49.420;8.390;2022-12-01T07:11:09;14.25;;;12.57;;
20535;SDS011;10426;49.420;8.390;2022-12-01T07:13:37;14.18;;;12.73;;
20535;SDS011;10426;49.420;8.390;2022-12-01T07:16:05;15.00;;;13.48;;
20535;SDS011;10426;49.420;8.390;2022-12-01T07:18:34;14.70;;;13.20;;
20535;SDS011;10426;49.420;8.390;2022-12-01T07:21:01;15.48;;;13.30;;
20535;SDS011;10426;49.420;8.390;2022-12-01T07:23:29;13.50;;;12.07;;
20535;SDS011;10426;49.420;8.390;2022-12-01T07:25:57;13.98;;;12.57;;
20535;SDS011;10426;49.420;8.390;2022-12-01T07:28:23;14.88;;;13.38;;
20535;SDS011;10426;49.420;8.390;2022-12-01T07:30:50;13.85;;;12.52;;
20535;SDS011;10426;49.420;8.390;2022-12-01T07:33:17;14.50;;;13.13;;
20535;SDS011;10426;49.420;8.390;2022-12-01T07:35:45;14.55;;;13.15;;
20535;SDS011;10426;49.420;8.390;2022-12-01T07:38:12;14.40;;;13.00;;
20535;SDS011;10426;49.420;8.390;2022-12-01T07:40:39;16.50;;;12.73;;
20535;SDS011;10426;49.420;8.390;2022-12-01T07:43:05;14.02;;;12.65;;
20535;SDS011;10426;49.420;8.390;2022-12-01T07:45:33;14.20;;;12.82;;
20535;SDS011;10426;49.420;8.390;2022-12-01T07:47:59;14.37;;;12.93;;
20535;SDS011;10426;49.420;8.390;2022-12-01T07:50:26;14.32;;;12.93;;
20535;SDS011;10426;49.420;8.390;2022-12-01T07:52:54;14.82;;;13.40;;
20535;SDS011;10426;49.420;8.390;2022-12-01T07:55:21;15.43;;;13.63;;
20535;SDS011;10426;49.420;8.390;2022-12-01T07:57:48;13.37;;;12.17;;
20535;SDS011;10426;49.420;8.390;2022-12-01T08:00:15;13.47;;;12.17;;
20535;SDS011;10426;49.420;8.390;2022-12-01T08:02:41;13.23;;;11.93;;
20535;SDS011;10426;49.420;8.390;2022-12-01T08:05:08;13.07;;;11.77;;
20535;SDS011;10426;49.420;8.390;2022-12-01T08:07:35;12.68;;;11.38;;
20535;SDS011;10426;49.420;8.390;2022-12-01T08:10:03;14.93;;;12.70;;
20535;SDS011;10426;49.420;8.390;2022-12-01T08:12:30;15.07;;;13.68;;
20535;SDS011;10426;49.420;8.390;2022-12-01T08:14:56;13.47;;;12.20;;
20535;SDS011;10426;49.420;8.390;2022-12-01T08:17:23;20.38;;;17.10;;
20535;SDS011;10426;49.420;8.390;2022-12-01T08:19:50;21.13;;;18.03;;
20535;SDS011;10426;49.420;8.390;2022-12-01T08:22:17;15.63;;;13.95;;
20535;SDS011;10426;49.420;8.390;2022-12-01T08:24:43;13.23;;;11.80;;
20535;SDS011;10426;49.420;8.390;2022-12-01T08:27:11;20.50;;;18.42;;
20535;SDS011;10426;49.420;8.390;2022-12-01T08:29:38;14.37;;;12.77;;
20535;SDS011;10426;49.420;8.390;2022-12-01T08:32:05;13.02;;;10.80;;
20535;SDS011;10426;49.420;8.390;2022-12-01T08:34:33;11.52;;;10.20;;
20535;SDS011;10426;49.420;8.390;2022-12-01T08:37:00;10.57;;;9.57;;
20535;SDS011;10426;49.420;8.390;2022-12-01T08:39:27;11.23;;;10.13;;
20535;SDS011;10426;49.420;8.390;2022-12-01T08:41:54;19.83;;;16.67;;
20535;SDS011;10426;49.420;8.390;2022-12-01T08:44:22;14.50;;;13.00;;
20535;SDS011;10426;49.420;8.390;2022-12-01T08:46:48;11.45;;;10.35;;
20535;SDS011;10426;49.420;8.390;2022-12-01T08:49:15;11.27;;;10.18;;
20535;SDS011;10426;49.420;8.390;2022-12-01T08:51:42;10.43;;;9.43;;
20535;SDS011;10426;49.420;8.390;2022-12-01T08:54:09;10.00;;;9.00;;
20535;SDS011;10426;49.420;8.390;2022-12-01T08:56:36;10.07;;;9.18;;
20535;SDS011;10426;49.420;8.390;2022-12-01T08:59:03;10.10;;;9.20;;
20535;SDS011;10426;49.420;8.390;2022-12-01T09:01:31;9.68;;;8.82;;
20535;SDS011;10426;49.420;8.390;2022-12-01T09:03:59;10.50;;;9.50;;
20535;SDS011;10426;49.420;8.390;2022-12-01T09:06:33;10.73;;;9.73;;
20535;SDS011;10426;49.420;8.390;2022-12-01T09:09:03;11.00;;;9.90;;
20535;SDS011;10426;49.420;8.390;2022-12-01T09:11:29;11.40;;;10.30;;
20535;SDS011;10426;49.420;8.390;2022-12-01T09:13:57;11.48;;;10.38;;
20535;SDS011;10426;49.420;8.390;2022-12-01T09:16:24;11.93;;;10.73;;
20535;SDS011;10426;49.420;8.390;2022-12-01T09:18:52;12.52;;;11.32;;
20535;SDS011;10426;49.420;8.390;2022-12-01T09:21:20;12.93;;;11.65;;
20535;SDS011;10426;49.420;8.390;2022-12-01T09:23:48;13.00;;;11.80;;
20535;SDS011;10426;49.420;8.390;2022-12-01T09:26:15;13.60;;;12.23;;
20535;SDS011;10426;49.420;8.390;2022-12-01T09:28:44;12.73;;;11.45;;
20535;SDS011;10426;49.420;8.390;2022-12-01T09:31:11;12.82;;;11.52;;
20535;SDS011;10426;49.420;8.390;2022-12-01T09:33:38;13.10;;;11.88;;
20535;SDS011;10426;49.420;8.390;2022-12-01T09:36:06;13.13;;;11.83;;
20535;SDS011;10426;49.420;8.390;2022-12-01T09:38:34;15.15;;;12.25;;
20535;SDS011;10426;49.420;8.390;2022-12-01T09:41:03;14.43;;;12.50;;
20535;SDS011;10426;49.420;8.390;2022-12-01T09:43:32;12.70;;;11.50;;
20535;SDS011;10426;49.420;8.390;2022-12-01T09:46:01;12.48;;;11.18;;
20535;SDS011;10426;49.420;8.390;2022-12-01T09:48:31;13.18;;;11.85;;
20535;SDS011;10426;49.420;8.390;2022-12-01T09:50:58;12.63;;;11.43;;
20535;SDS011;10426;49.420;8.390;2022-12-01T09:53:26;12.48;;;11.18;;
20535;SDS011;10426;49.420;8.390;2022-12-01T09:55:54;12.50;;;11.30;;
20535;SDS011;10426;49.420;8.390;2022-12-01T09:58:22;13.45;;;12.05;;
20535;SDS011;10426;49.420;8.390;2022-12-01T10:00:50;13.05;;;11.75;;
20535;SDS011;10426;49.420;8.390;2022-12-01T10:03:21;12.07;;;10.98;;
20535;SDS011;10426;49.420;8.390;2022-12-01T10:05:53;11.77;;;10.70;;
20535;SDS011;10426;49.420;8.390;2022-12-01T10:08:21;12.93;;;11.63;;
20535;SDS011;10426;49.420;8.390;2022-12-01T10:10:53;12.32;;;11.07;;
20535;SDS011;10426;49.420;8.390;2022-12-01T10:13:22;11.52;;;10.43;;
20535;SDS011;10426;49.420;8.390;2022-12-01T10:15:51;12.18;;;10.93;;
20535;SDS011;10426;49.420;8.390;2022-12-01T10:18:23;12.48;;;11.38;;
20535;SDS011;10426;49.420;8.390;2022-12-01T10:20:55;12.63;;;11.38;;
20535;SDS011;10426;49.420;8.390;2022-12-01T10:23:32;12.57;;;11.20;;
20535;SDS011;10426;49.420;8.390;2022-12-01T10:26:06;12.38;;;11.18;;
20535;SDS011;10426;49.420;8.390;2022-12-01T10:28:40;12.50;;;11.25;;
20535;SDS011;10426;49.420;8.390;2022-12-01T10:31:13;12.35;;;11.18;;
20535;SDS011;10426;49.420;8.390;2022-12-01T10:33:43;12.70;;;11.23;;
20535;SDS011;10426;49.420;8.390;2022-12-01T10:36:10;11.85;;;10.75;;
20535;SDS011;10426;49.420;8.390;2022-12-01T10:38:37;11.13;;;10.13;;
20535;SDS011;10426;49.420;8.390;2022-12-01T10:41:09;11.20;;;10.10;;
20535;SDS011;10426;49.420;8.390;2022-12-01T10:43:38;13.48;;;12.07;;
20535;SDS011;10426;49.420;8.390;2022-12-01T10:46:07;14.35;;;12.95;;
20535;SDS011;10426;49.420;8.390;2022-12-01T10:48:50;12.50;;;11.25;;
20535;SDS011;10426;49.420;8.390;2022-12-01T10:51:17;12.52;;;11.32;;
20535;SDS011;10426;49.420;8.390;2022-12-01T10:53:44;11.27;;;10.27;;
20535;SDS011;10426;49.420;8.390;2022-12-01T10:56:14;11.43;;;10.43;;
20535;SDS011;10426;49.420;8.390;2022-12-01T10:58:44;11.55;;;10.43;;
20535;SDS011;10426;49.420;8.390;2022-12-01T11:01:15;11.77;;;10.68;;
20535;SDS011;10426;49.420;8.390;2022-12-01T11:03:47;11.43;;;10.30;;
20535;SDS011;10426;49.420;8.390;2022-12-01T11:06:15;10.98;;;9.98;;
20535;SDS011;10426;49.420;8.390;2022-12-01T11:08:50;10.95;;;9.95;;
20535;SDS011;10426;49.420;8.390;2022-12-01T11:11:29;11.68;;;10.57;;
20535;SDS011;10426;49.420;8.390;2022-12-01T11:13:57;11.87;;;10.67;;
20535;SDS011;10426;49.420;8.390;2022-12-01T11:19:17;12.35;;;11.15;;
20535;SDS011;10426;49.420;8.390;2022-12-01T11:21:46;12.60;;;11.48;;
20535;SDS011;10426;49.420;8.390;2022-12-01T11:24:27;11.57;;;10.50;;
20535;SDS011;10426;49.420;8.390;2022-12-01T11:26:56;11.95;;;10.75;;
20535;SDS011;10426;49.420;8.390;2022-12-01T11:29:26;11.98;;;10.80;;
20535;SDS011;10426;49.420;8.390;2022-12-01T11:31:55;12.13;;;10.98;;
20535;SDS011;10426;49.420;8.390;2022-12-01T11:34:24;11.55;;;10.43;;
20535;SDS011;10426;49.420;8.390;2022-12-01T11:36:52;11.30;;;10.20;;
20535;SDS011;10426;49.420;8.390;2022-12-01T11:39:20;12.23;;;11.13;;
20535;SDS011;10426;49.420;8.390;2022-12-01T11:41:48;13.13;;;11.88;;
20535;SDS011;10426;49.420;8.390;2022-12-01T11:44:21;12.73;;;11.57;;
20535;SDS011;10426;49.420;8.390;2022-12-01T11:46:49;11.77;;;10.65;;
20535;SDS011;10426;49.420;8.390;2022-12-01T11:49:16;13.50;;;12.20;;
20535;SDS011;10426;49.420;8.390;2022-12-01T11:51:43;13.52;;;12.15;;
20535;SDS011;10426;49.420;8.390;2022-12-01T11:54:14;15.23;;;13.73;;
20535;SDS011;10426;49.420;8.390;2022-12-01T11:56:41;19.27;;;16.90;;
20535;SDS011;10426;49.420;8.390;2022-12-01T11:59:13;15.70;;;14.20;;
20535;SDS011;10426;49.420;8.390;2022-12-01T12:01:55;14.52;;;13.13;;
20535;SDS011;10426;49.420;8.390;2022-12-01T12:04:31;13.60;;;12.30;;
20535;SDS011;10426;49.420;8.390;2022-12-01T12:07:01;15.77;;;14.18;;
20535;SDS011;10426;49.420;8.390;2022-12-01T12:09:35;12.38;;;11.18;;
20535;SDS011;10426;49.420;8.390;2022-12-01T12:12:06;12.32;;;11.18;;
20535;SDS011;10426;49.420;8.390;2022-12-01T12:14:40;12.18;;;11.07;;
20535;SDS011;10426;49.420;8.390;2022-12-01T12:17:14;11.77;;;10.70;;
20535;SDS011;10426;49.420;8.390;2022-12-01T12:19:48;11.70;;;10.60;;
20535;SDS011;10426;49.420;8.390;2022-12-01T12:22:20;12.65;;;11.45;;
20535;SDS011;10426;49.420;8.390;2022-12-01T12:24:51;12.70;;;11.57;;
20535;SDS011;10426;49.420;8.390;2022-12-01T12:27:22;12.77;;;11.57;;
20535;SDS011;10426;49.420;8.390;2022-12-01T12:29:55;12.50;;;11.30;;
20535;SDS011;10426;49.420;8.390;2022-12-01T12:32:30;12.15;;;10.95;;
20535;SDS011;10426;49.420;8.390;2022-12-01T12:35:00;12.48;;;11.27;;
20535;SDS011;10426;49.420;8.390;2022-12-01T12:37:30;12.00;;;10.90;;
20535;SDS011;10426;49.420;8.390;2022-12-01T12:40:05;12.23;;;11.02;;
20535;SDS011;10426;49.420;8.390;2022-12-01T12:42:40;11.75;;;10.65;;
20535;SDS011;10426;49.420;8.390;2022-12-01T12:45:14;11.80;;;10.70;;
20535;SDS011;10426;49.420;8.390;2022-12-01T12:47:48;12.23;;;11.02;;
20535;SDS011;10426;49.420;8.390;2022-12-01T12:50:22;11.43;;;10.43;;
20535;SDS011;10426;49.420;8.390;2022-12-01T12:52:50;12.55;;;11.35;;
20535;SDS011;10426;49.420;8.390;2022-12-01T12:55:20;12.15;;;11.00;;
20535;SDS011;10426;49.420;8.390;2022-12-01T12:57:52;12.20;;;11.00;;
20535;SDS011;10426;49.420;8.390;2022-12-01T13:00:21;12.70;;;11.45;;
20535;SDS011;10426;49.420;8.390;2022-12-01T13:02:52;12.45;;;11.25;;
20535;SDS011;10426;49.420;8.390;2022-12-01T13:05:21;15.50;;;13.90;;
20535;SDS011;10426;49.420;8.390;2022-12-01T13:07:49;14.63;;;13.02;;
20535;SDS011;10426;49.420;8.390;2022-12-01T13:10:20;17.70;;;14.27;;
20535;SDS011;10426;49.420;8.390;2022-12-01T13:12:51;24.67;;;18.60;;
20535;SDS011;10426;49.420;8.390;2022-12-01T13:15:19;26.23;;;19.50;;
20535;SDS011;10426;49.420;8.390;2022-12-01T13:17:47;13.55;;;12.25;;
20535;SDS011;10426;49.420;8.390;2022-12-01T13:20:18;12.90;;;11.65;;
20535;SDS011;10426;49.420;8.390;2022-12-01T13:22:45;14.07;;;12.38;;
20535;SDS011;10426;49.420;8.390;2022-12-01T13:25:20;13.10;;;11.77;;
20535;SDS011;10426;49.420;8.390;2022-12-01T13:27:48;13.27;;;11.68;;
20535;SDS011;10426;49.420;8.390;2022-12-01T13:30:16;12.85;;;11.55;;
20535;SDS011;10426;49.420;8.390;2022-12-01T13:32:43;13.13;;;11.73;;
20535;SDS011;10426;49.420;8.390;2022-12-01T13:35:21;13.27;;;11.98;;
20535;SDS011;10426;49.420;8.390;2022-12-01T13:37:48;12.48;;;11.27;;
20535;SDS011;10426;49.420;8.390;2022-12-01T13:40:18;12.18;;;11.07;;
20535;SDS011;10426;49.420;8.390;2022-12-01T13:42:54;12.30;;;11.10;;
20535;SDS011;10426;49.420;8.390;2022-12-01T13:45:21;12.88;;;11.68;;
20535;SDS011;10426;49.420;8.390;2022-12-01T13:47:49;11.70;;;10.50;;
20535;SDS011;10426;49.420;8.390;2022-12-01T13:53:08;13.73;;;12.43;;
20535;SDS011;10426;49.420;8.390;2022-12-01T13:55:35;12.23;;;11.02;;
20535;SDS011;10426;49.420;8.390;2022-12-01T13:58:22;12.38;;;11.07;;
20535;SDS011;10426;49.420;8.390;2022-12-01T14:00:49;12.57;;;11.38;;
20535;SDS011;10426;49.420;8.390;2022-12-01T14:06:06;12.55;;;11.35;;
20535;SDS011;10426;49.420;8.390;2022-12-01T14:08:34;12.95;;;11.38;;
20535;SDS011;10426;49.420;8.390;2022-12-01T14:11:03;11.93;;;10.77;;
20535;SDS011;10426;49.420;8.390;2022-12-01T14:13:44;11.80;;;10.70;;
20535;SDS011;10426;49.420;8.390;2022-12-01T14:16:11;12.93;;;11.73;;
20535;SDS011;10426;49.420;8.390;2022-12-01T14:18:38;12.30;;;11.07;;
20535;SDS011;10426;49.420;8.390;2022-12-01T14:21:07;19.45;;;17.45;;
20535;SDS011;10426;49.420;8.390;2022-12-01T14:23:37;18.88;;;16.92;;
20535;SDS011;10426;49.420;8.390;2022-12-01T14:26:12;26.35;;;23.58;;
20535;SDS011;10426;49.420;8.390;2022-12-01T14:34:11;16.15;;;14.63;;
20535;SDS011;10426;49.420;8.390;2022-12-01T14:36:39;18.57;;;16.63;;
20535;SDS011;10426;49.420;8.390;2022-12-01T14:39:11;18.35;;;16.48;;
20535;SDS011;10426;49.420;8.390;2022-12-01T14:41:40;14.07;;;12.77;;
20535;SDS011;10426;49.420;8.390;2022-12-01T14:44:10;12.23;;;11.13;;
20535;SDS011;10426;49.420;8.390;2022-12-01T14:46:38;13.82;;;11.02;;
20535;SDS011;10426;49.420;8.390;2022-12-01T14:49:08;14.03;;;12.63;;
20535;SDS011;10426;49.420;8.390;2022-12-01T14:51:37;14.98;;;13.48;;